• Join FlightAware (Why Join?)
  • Login
  • US Flag 
07:33AM EDT


 

Airport Tracker/Info


-or-


 

Live Flight TrackerFlight Track Log ✈ AWE2690 ✈ 09-Oct-2013 ✈ KMYR - KCLT

Flight Track Log - Related Links

Times and Time Zones

All times are in EDT time to prevent confusion due to time zone crossing. See the AWE2690 flight status page for this flight to view local times or setup timezone preferences in your user account.

Time Position Orientation Groundspeed Altitude Reporting Facility
EDT Latitude Longitude Course Direction KTS MPH feet Rate Location/Type
11:25AM 33.7267 -78.9472 309° West 164 189 2,400  Level Jacksonville Center
11:26AM 33.7697 -78.9878 322° Northwest 224 258 4,300 2,460 Climbing Jacksonville Center
11:27AM 33.8294 -79.0325 328° Northwest 224 258 7,400 3,000 Climbing Jacksonville Center
11:28AM 33.9360 -79.2578 312° West  Level Estimated
11:28AM 33.8778 -79.1056 309° West 242 278 10,300  Level Jacksonville Center
11:29AM 33.9974 -79.3432 311° West  Level FlightAware Approximate
11:29AM 33.9322 -79.1881 309° West 288 331 12,200  Level Jacksonville Center
11:30AM 34.0587 -79.4288 311° West  Level FlightAware Approximate
11:30AM 33.9914 -79.2808 308° West 324 373 15,000  Level Jacksonville Center
11:31AM 34.1228 -79.5114 309° West  Level Estimated
11:31AM 34.0503 -79.3711 308° West 337 388 17,100  Level Jacksonville Center
11:32AM 34.1089 -79.4567 310° West 356 410 17,000 -60 Descending Jacksonville Center
11:33AM 34.1742 -79.5619 307° West 379 436 17,000  Level Jacksonville Center
11:34AM 34.2439 -79.6697 308° West 397 457 17,000  Level Jacksonville Center
11:35AM 34.3131 -79.7703 310° West 398 458 17,000  Level Jacksonville Center
11:36AM 34.3825 -79.8758 309° West 398 458 17,000  Level Jacksonville Center
11:37AM 34.4472 -79.9719 309° West 386 444 17,000 -120 Level Jacksonville Center
11:38AM 34.5142 -80.0706 310° West 386 444 16,800 -1,440 Descending Jacksonville Center
11:41AM 34.6661 -80.2986 309° West 290 334 12,000 -1,740 Descending Atlanta Center
11:42AM 34.7181 -80.3594 316° Northwest 278 320 11,000 -540 Descending Atlanta Center
11:43AM 34.7706 -80.4406 308° West 289 333 10,900 -900 Descending Atlanta Center
11:44AM 34.7608 -80.5447 264° West 309 356 9,200 -1,440 Descending Atlanta Center
11:45AM 34.7553 -80.6458 266° West 279 321 8,000 -660 Descending Atlanta Center
11:46AM 34.7492 -80.7272 265° West 225 259 7,900 -600 Descending Atlanta Center
11:47AM 34.7408 -80.8058 263° West 227 261 6,900 -960 Descending Atlanta Center
11:48AM 34.7694 -80.8578 304° West 228 262 6,100 -480 Descending Atlanta Center
11:49AM 34.8164 -80.9042 321° Northwest 216 249 6,000 -60 Descending Atlanta Center
11:50AM 34.8694 -80.9350 335° Northwest 212 244 6,000  Level Atlanta Center
11:51AM 34.9344 -80.9428 354° North 213 245 6,000 -600 Level Atlanta Center
11:52AM 34.9972 -80.9506 354° North 215 247 4,800 -1,080 Descending Atlanta Center
11:53AM 35.0578 -80.9558 356° North 186 214 3,700 -1,080 Descending Atlanta Center
11:54AM 35.1017 -80.9594 356° North 158 182 2,700 -900 Descending Atlanta Center
11:55AM 35.1414 -80.9631 356° North 137 158 2,000 -720 Descending Atlanta Center
11:56AM 35.1792 -80.9667 356° North 130 150 1,300 -720 Descending Atlanta Center